sensor_id;sensor_type;location;lat;lon;timestamp;pressure;altitude;pressure_sealevel;temperature;humidity
16694;BME280;39538;52.196;9.892;2022-12-18T00:01:57;101930.06;;;-5.87;84.99
16694;BME280;39538;52.196;9.892;2022-12-18T00:04:26;101928.34;;;-5.87;85.19
16694;BME280;39538;52.196;9.892;2022-12-18T00:06:54;101922.34;;;-5.86;85.33
16694;BME280;39538;52.196;9.892;2022-12-18T00:09:20;101923.53;;;-5.67;85.56
16694;BME280;39538;52.196;9.892;2022-12-18T00:11:47;101922.03;;;-5.56;85.09
16694;BME280;39538;52.196;9.892;2022-12-18T00:14:14;101921.44;;;-5.39;84.82
16694;BME280;39538;52.196;9.892;2022-12-18T00:16:45;101918.13;;;-5.34;83.96
16694;BME280;39538;52.196;9.892;2022-12-18T00:19:13;101930.25;;;-5.30;83.63
16694;BME280;39538;52.196;9.892;2022-12-18T00:21:41;101927.69;;;-5.28;83.12
16694;BME280;39538;52.196;9.892;2022-12-18T00:24:09;101929.38;;;-5.30;83.00
16694;BME280;39538;52.196;9.892;2022-12-18T00:26:37;101931.22;;;-5.23;82.64
16694;BME280;39538;52.196;9.892;2022-12-18T00:29:07;101934.81;;;-5.13;82.19
16694;BME280;39538;52.196;9.892;2022-12-18T00:31:34;101942.75;;;-5.05;81.74
16694;BME280;39538;52.196;9.892;2022-12-18T00:34:02;101946.34;;;-4.96;81.60
16694;BME280;39538;52.196;9.892;2022-12-18T00:36:30;101950.75;;;-4.90;80.89
16694;BME280;39538;52.196;9.892;2022-12-18T00:38:58;101937.75;;;-4.93;80.84
16694;BME280;39538;52.196;9.892;2022-12-18T00:41:27;101941.22;;;-4.93;80.76
16694;BME280;39538;52.196;9.892;2022-12-18T00:44:13;101936.81;;;-4.98;80.37
16694;BME280;39538;52.196;9.892;2022-12-18T00:46:41;101936.00;;;-4.94;80.43
16694;BME280;39538;52.196;9.892;2022-12-18T00:49:08;101953.16;;;-5.02;80.39
16694;BME280;39538;52.196;9.892;2022-12-18T00:51:34;101959.03;;;-5.11;80.07
16694;BME280;39538;52.196;9.892;2022-12-18T00:54:01;101965.78;;;-5.21;80.68
16694;BME280;39538;52.196;9.892;2022-12-18T00:56:28;101969.16;;;-5.25;80.91
16694;BME280;39538;52.196;9.892;2022-12-18T00:58:55;101963.94;;;-5.28;81.29
16694;BME280;39538;52.196;9.892;2022-12-18T01:01:22;101962.25;;;-5.26;81.55
16694;BME280;39538;52.196;9.892;2022-12-18T01:03:48;101948.53;;;-5.22;81.88
16694;BME280;39538;52.196;9.892;2022-12-18T01:06:16;101950.28;;;-5.18;81.28
16694;BME280;39538;52.196;9.892;2022-12-18T01:08:43;101936.44;;;-5.20;81.20
16694;BME280;39538;52.196;9.892;2022-12-18T01:11:11;101950.31;;;-5.16;81.26
16694;BME280;39538;52.196;9.892;2022-12-18T01:13:39;101952.91;;;-5.16;81.04
16694;BME280;39538;52.196;9.892;2022-12-18T01:16:06;101959.03;;;-5.13;80.83
16694;BME280;39538;52.196;9.892;2022-12-18T01:18:34;101963.94;;;-5.28;80.80
16694;BME280;39538;52.196;9.892;2022-12-18T01:21:00;101963.66;;;-5.43;81.00
16694;BME280;39538;52.196;9.892;2022-12-18T01:23:27;101974.69;;;-5.54;81.32
16694;BME280;39538;52.196;9.892;2022-12-18T01:25:53;101978.78;;;-5.65;81.56
16694;BME280;39538;52.196;9.892;2022-12-18T01:28:20;101980.41;;;-5.70;82.03
16694;BME280;39538;52.196;9.892;2022-12-18T01:30:47;101970.06;;;-5.70;82.83
16694;BME280;39538;52.196;9.892;2022-12-18T01:33:14;101968.47;;;-5.63;83.65
16694;BME280;39538;52.196;9.892;2022-12-18T01:35:41;101970.25;;;-5.61;83.51
16694;BME280;39538;52.196;9.892;2022-12-18T01:38:08;101983.16;;;-5.64;83.72
16694;BME280;39538;52.196;9.892;2022-12-18T01:40:34;101971.72;;;-5.74;84.11
16694;BME280;39538;52.196;9.892;2022-12-18T01:43:01;101977.78;;;-5.72;84.21
16694;BME280;39538;52.196;9.892;2022-12-18T01:45:28;101979.56;;;-5.69;84.33
16694;BME280;39538;52.196;9.892;2022-12-18T01:47:58;101983.91;;;-5.68;84.57
16694;BME280;39538;52.196;9.892;2022-12-18T01:50:30;101981.09;;;-5.79;84.61
16694;BME280;39538;52.196;9.892;2022-12-18T01:52:59;101989.63;;;-5.83;84.45
16694;BME280;39538;52.196;9.892;2022-12-18T01:55:30;101983.56;;;-5.86;84.88
16694;BME280;39538;52.196;9.892;2022-12-18T01:57:59;101987.09;;;-5.81;85.17
16694;BME280;39538;52.196;9.892;2022-12-18T02:00:27;101981.97;;;-5.78;85.09
16694;BME280;39538;52.196;9.892;2022-12-18T02:02:53;101985.28;;;-5.85;85.57
16694;BME280;39538;52.196;9.892;2022-12-18T02:05:29;101982.59;;;-5.90;85.29
16694;BME280;39538;52.196;9.892;2022-12-18T02:08:06;101986.97;;;-5.87;85.81
16694;BME280;39538;52.196;9.892;2022-12-18T02:10:40;101984.22;;;-5.98;85.56
16694;BME280;39538;52.196;9.892;2022-12-18T02:13:13;101991.72;;;-6.10;85.26
16694;BME280;39538;52.196;9.892;2022-12-18T02:15:43;101986.47;;;-6.13;85.48
16694;BME280;39538;52.196;9.892;2022-12-18T02:18:18;101987.94;;;-6.25;85.93
16694;BME280;39538;52.196;9.892;2022-12-18T02:20:53;101986.09;;;-6.30;86.31
16694;BME280;39538;52.196;9.892;2022-12-18T02:23:32;101982.75;;;-6.26;86.41
16694;BME280;39538;52.196;9.892;2022-12-18T02:26:09;101986.91;;;-6.33;86.42
16694;BME280;39538;52.196;9.892;2022-12-18T02:28:41;101987.78;;;-6.32;86.56
16694;BME280;39538;52.196;9.892;2022-12-18T02:31:12;101983.47;;;-6.32;87.28
16694;BME280;39538;52.196;9.892;2022-12-18T02:33:41;101980.06;;;-6.31;87.08
16694;BME280;39538;52.196;9.892;2022-12-18T02:36:10;101975.72;;;-6.32;87.28
16694;BME280;39538;52.196;9.892;2022-12-18T02:38:41;101969.53;;;-6.40;87.20
16694;BME280;39538;52.196;9.892;2022-12-18T02:41:10;101966.97;;;-6.39;87.54
16694;BME280;39538;52.196;9.892;2022-12-18T02:43:37;101975.81;;;-6.27;88.01
16694;BME280;39538;52.196;9.892;2022-12-18T02:46:24;101972.44;;;-6.25;87.72
16694;BME280;39538;52.196;9.892;2022-12-18T02:48:54;101966.22;;;-6.33;88.00
16694;BME280;39538;52.196;9.892;2022-12-18T02:51:29;101965.22;;;-6.40;87.34
16694;BME280;39538;52.196;9.892;2022-12-18T02:54:03;101961.72;;;-6.42;87.73
16694;BME280;39538;52.196;9.892;2022-12-18T02:56:38;101965.06;;;-6.46;87.77
16694;BME280;39538;52.196;9.892;2022-12-18T02:59:13;101958.94;;;-6.51;87.27
16694;BME280;39538;52.196;9.892;2022-12-18T03:01:44;101965.56;;;-6.64;87.67
16694;BME280;39538;52.196;9.892;2022-12-18T03:04:19;101956.03;;;-6.66;87.77
16694;BME280;39538;52.196;9.892;2022-12-18T03:06:49;101957.81;;;-6.62;87.99
16694;BME280;39538;52.196;9.892;2022-12-18T03:09:19;101958.72;;;-6.60;88.08
16694;BME280;39538;52.196;9.892;2022-12-18T03:11:54;101957.00;;;-6.61;88.52
16694;BME280;39538;52.196;9.892;2022-12-18T03:14:40;101959.63;;;-6.58;88.48
16694;BME280;39538;52.196;9.892;2022-12-18T03:17:10;101955.50;;;-6.51;88.69
16694;BME280;39538;52.196;9.892;2022-12-18T03:19:40;101961.72;;;-6.43;89.41
16694;BME280;39538;52.196;9.892;2022-12-18T03:22:09;101964.41;;;-6.39;89.32
16694;BME280;39538;52.196;9.892;2022-12-18T03:24:36;101957.72;;;-6.27;89.42
16694;BME280;39538;52.196;9.892;2022-12-18T03:27:10;101953.47;;;-6.25;88.93
16694;BME280;39538;52.196;9.892;2022-12-18T03:29:42;101948.47;;;-6.16;89.34
16694;BME280;39538;52.196;9.892;2022-12-18T03:32:11;101952.16;;;-6.05;88.87
16694;BME280;39538;52.196;9.892;2022-12-18T03:34:42;101961.66;;;-6.05;88.78
16694;BME280;39538;52.196;9.892;2022-12-18T03:37:10;101956.69;;;-5.93;88.77
16694;BME280;39538;52.196;9.892;2022-12-18T03:39:37;101961.19;;;-5.83;88.70
16694;BME280;39538;52.196;9.892;2022-12-18T03:42:10;101958.72;;;-5.77;87.93
16694;BME280;39538;52.196;9.892;2022-12-18T03:44:43;101963.19;;;-5.69;87.90
16694;BME280;39538;52.196;9.892;2022-12-18T03:47:14;101957.34;;;-5.58;87.32
16694;BME280;39538;52.196;9.892;2022-12-18T03:49:47;101965.97;;;-5.57;86.75
16694;BME280;39538;52.196;9.892;2022-12-18T03:52:18;101948.03;;;-5.49;86.86
16694;BME280;39538;52.196;9.892;2022-12-18T03:54:47;101948.03;;;-5.48;86.32
16694;BME280;39538;52.196;9.892;2022-12-18T03:57:18;101944.53;;;-5.52;85.74
16694;BME280;39538;52.196;9.892;2022-12-18T03:59:45;101949.88;;;-5.42;85.47
16694;BME280;39538;52.196;9.892;2022-12-18T04:02:15;101942.06;;;-5.44;85.40
16694;BME280;39538;52.196;9.892;2022-12-18T04:04:43;101934.22;;;-5.50;84.83
16694;BME280;39538;52.196;9.892;2022-12-18T04:07:11;101934.16;;;-5.53;85.13
16694;BME280;39538;52.196;9.892;2022-12-18T04:09:39;101947.94;;;-5.53;84.58
16694;BME280;39538;52.196;9.892;2022-12-18T04:12:08;101951.41;;;-5.54;85.07
16694;BME280;39538;52.196;9.892;2022-12-18T04:14:36;101958.56;;;-5.39;84.82
16694;BME280;39538;52.196;9.892;2022-12-18T04:17:02;101959.72;;;-5.23;84.53
16694;BME280;39538;52.196;9.892;2022-12-18T04:19:29;101962.25;;;-5.26;84.10
16694;BME280;39538;52.196;9.892;2022-12-18T04:21:55;101963.00;;;-5.32;83.66
16694;BME280;39538;52.196;9.892;2022-12-18T04:24:22;101967.22;;;-5.37;83.57
16694;BME280;39538;52.196;9.892;2022-12-18T04:26:48;101974.81;;;-5.47;83.40
16694;BME280;39538;52.196;9.892;2022-12-18T04:29:15;101971.97;;;-5.60;83.47
16694;BME280;39538;52.196;9.892;2022-12-18T04:31:43;101962.22;;;-5.75;83.73
16694;BME280;39538;52.196;9.892;2022-12-18T04:34:09;101963.91;;;-5.77;83.81
16694;BME280;39538;52.196;9.892;2022-12-18T04:36:36;101969.13;;;-5.75;83.76
16694;BME280;39538;52.196;9.892;2022-12-18T04:39:03;101964.72;;;-5.79;83.77
16694;BME280;39538;52.196;9.892;2022-12-18T04:41:29;101966.41;;;-5.81;84.10
16694;BME280;39538;52.196;9.892;2022-12-18T04:43:56;101962.00;;;-5.87;83.89
16694;BME280;39538;52.196;9.892;2022-12-18T04:46:22;101958.47;;;-5.90;83.51
16694;BME280;39538;52.196;9.892;2022-12-18T04:48:50;101958.25;;;-6.03;83.60
16694;BME280;39538;52.196;9.892;2022-12-18T04:51:16;101959.03;;;-6.07;83.72
16694;BME280;39538;52.196;9.892;2022-12-18T04:53:43;101957.91;;;-6.20;83.89
16694;BME280;39538;52.196;9.892;2022-12-18T04:56:11;101958.59;;;-6.28;83.79
16694;BME280;39538;52.196;9.892;2022-12-18T04:58:39;101959.75;;;-6.14;84.50
16694;BME280;39538;52.196;9.892;2022-12-18T05:01:07;101953.03;;;-6.04;85.06
16694;BME280;39538;52.196;9.892;2022-12-18T05:03:35;101956.81;;;-5.85;85.30
16694;BME280;39538;52.196;9.892;2022-12-18T05:06:03;101964.84;;;-5.73;84.63
16694;BME280;39538;52.196;9.892;2022-12-18T05:08:30;101953.09;;;-5.56;84.20
16694;BME280;39538;52.196;9.892;2022-12-18T05:11:01;101952.25;;;-5.55;83.38
16694;BME280;39538;52.196;9.892;2022-12-18T05:13:29;101949.03;;;-5.43;82.68
16694;BME280;39538;52.196;9.892;2022-12-18T05:15:55;101945.63;;;-5.39;82.33
16694;BME280;39538;52.196;9.892;2022-12-18T05:18:23;101958.75;;;-5.28;81.76
16694;BME280;39538;52.196;9.892;2022-12-18T05:20:49;101969.97;;;-5.27;81.56
16694;BME280;39538;52.196;9.892;2022-12-18T05:23:17;101969.22;;;-5.22;81.32
16694;BME280;39538;52.196;9.892;2022-12-18T05:25:47;101961.47;;;-5.20;81.03
16694;BME280;39538;52.196;9.892;2022-12-18T05:28:13;101965.00;;;-5.15;80.34
16694;BME280;39538;52.196;9.892;2022-12-18T05:30:40;101965.13;;;-5.09;80.04
16694;BME280;39538;52.196;9.892;2022-12-18T05:33:09;101966.88;;;-5.08;79.78
16694;BME280;39538;52.196;9.892;2022-12-18T05:35:35;101971.13;;;-5.12;79.74
16694;BME280;39538;52.196;9.892;2022-12-18T05:38:02;101974.72;;;-5.03;79.38
16694;BME280;39538;52.196;9.892;2022-12-18T05:40:30;101967.78;;;-5.04;79.03
16694;BME280;39538;52.196;9.892;2022-12-18T05:42:56;101973.84;;;-5.05;79.06
16694;BME280;39538;52.196;9.892;2022-12-18T05:45:23;101973.88;;;-5.02;78.75
16694;BME280;39538;52.196;9.892;2022-12-18T05:47:49;101980.81;;;-5.00;79.21
16694;BME280;39538;52.196;9.892;2022-12-18T05:50:16;101986.97;;;-4.93;78.64
16694;BME280;39538;52.196;9.892;2022-12-18T05:52:43;101985.31;;;-4.88;78.45
16694;BME280;39538;52.196;9.892;2022-12-18T05:55:09;101981.84;;;-4.90;78.45
16694;BME280;39538;52.196;9.892;2022-12-18T05:57:37;101988.66;;;-4.95;78.34
16694;BME280;39538;52.196;9.892;2022-12-18T06:00:04;101988.66;;;-4.95;78.57
16694;BME280;39538;52.196;9.892;2022-12-18T06:02:31;101992.97;;;-4.96;78.59
16694;BME280;39538;52.196;9.892;2022-12-18T06:04:58;102005.81;;;-5.03;78.16
16694;BME280;39538;52.196;9.892;2022-12-18T06:07:24;102011.88;;;-5.01;78.40
16694;BME280;39538;52.196;9.892;2022-12-18T06:09:51;102005.81;;;-5.02;78.70
16694;BME280;39538;52.196;9.892;2022-12-18T06:12:17;102008.44;;;-4.99;78.79
16694;BME280;39538;52.196;9.892;2022-12-18T06:14:45;102004.00;;;-5.06;78.43
16694;BME280;39538;52.196;9.892;2022-12-18T06:17:12;102003.28;;;-5.00;78.70
16694;BME280;39538;52.196;9.892;2022-12-18T06:19:38;102000.63;;;-5.03;78.48
16694;BME280;39538;52.196;9.892;2022-12-18T06:22:05;102007.44;;;-5.09;78.64
16694;BME280;39538;52.196;9.892;2022-12-18T06:24:31;102007.34;;;-5.13;78.79
16694;BME280;39538;52.196;9.892;2022-12-18T06:26:58;102005.75;;;-5.06;79.17
16694;BME280;39538;52.196;9.892;2022-12-18T06:29:24;102003.19;;;-5.05;78.82
16694;BME280;39538;52.196;9.892;2022-12-18T06:31:52;102002.16;;;-5.13;78.82
16694;BME280;39538;52.196;9.892;2022-12-18T06:34:19;101989.22;;;-5.13;78.94
16694;BME280;39538;52.196;9.892;2022-12-18T06:36:45;102004.72;;;-5.16;79.00
16694;BME280;39538;52.196;9.892;2022-12-18T06:39:12;102001.19;;;-5.20;78.95
16694;BME280;39538;52.196;9.892;2022-12-18T06:41:38;101994.16;;;-5.27;79.28
16694;BME280;39538;52.196;9.892;2022-12-18T06:44:05;101991.75;;;-5.16;79.75
16694;BME280;39538;52.196;9.892;2022-12-18T06:46:31;102006.28;;;-5.26;79.31
16694;BME280;39538;52.196;9.892;2022-12-18T06:48:59;102002.00;;;-5.24;79.53
16694;BME280;39538;52.196;9.892;2022-12-18T06:51:26;102007.09;;;-5.27;79.58
16694;BME280;39538;52.196;9.892;2022-12-18T06:53:52;102002.91;;;-5.20;79.51
16694;BME280;39538;52.196;9.892;2022-12-18T06:56:19;102005.41;;;-5.25;79.82
16694;BME280;39538;52.196;9.892;2022-12-18T06:58:46;101995.88;;;-5.29;79.89
16694;BME280;39538;52.196;9.892;2022-12-18T07:01:13;102007.22;;;-5.21;80.04
16694;BME280;39538;52.196;9.892;2022-12-18T07:03:40;102010.63;;;-5.23;80.31
16694;BME280;39538;52.196;9.892;2022-12-18T07:06:14;102008.94;;;-5.20;80.24
16694;BME280;39538;52.196;9.892;2022-12-18T07:08:41;102009.03;;;-5.17;80.44
16694;BME280;39538;52.196;9.892;2022-12-18T07:11:08;102018.56;;;-5.14;80.34
16694;BME280;39538;52.196;9.892;2022-12-18T07:13:34;102016.09;;;-5.06;80.24
16694;BME280;39538;52.196;9.892;2022-12-18T07:16:07;102020.53;;;-4.99;80.22
16694;BME280;39538;52.196;9.892;2022-12-18T07:18:34;102016.31;;;-4.94;80.42
16694;BME280;39538;52.196;9.892;2022-12-18T07:21:05;102025.09;;;-4.86;80.02
16694;BME280;39538;52.196;9.892;2022-12-18T07:23:34;102034.66;;;-4.82;80.33
16694;BME280;39538;52.196;9.892;2022-12-18T07:26:02;102037.31;;;-4.79;79.96
16694;BME280;39538;52.196;9.892;2022-12-18T07:28:29;102031.47;;;-4.66;79.56
16694;BME280;39538;52.196;9.892;2022-12-18T07:30:55;102038.47;;;-4.60;79.53
16694;BME280;39538;52.196;9.892;2022-12-18T07:33:22;102036.81;;;-4.55;79.32
16694;BME280;39538;52.196;9.892;2022-12-18T07:35:49;102044.53;;;-4.59;78.86
16694;BME280;39538;52.196;9.892;2022-12-18T07:38:15;102035.94;;;-4.57;79.20
16694;BME280;39538;52.196;9.892;2022-12-18T07:40:43;102037.78;;;-4.50;78.97
16694;BME280;39538;52.196;9.892;2022-12-18T07:43:10;102043.91;;;-4.45;78.87
16694;BME280;39538;52.196;9.892;2022-12-18T07:45:36;102054.28;;;-4.43;78.85
16694;BME280;39538;52.196;9.892;2022-12-18T07:48:04;102052.66;;;-4.36;78.57
16694;BME280;39538;52.196;9.892;2022-12-18T07:50:30;102050.97;;;-4.34;78.56
16694;BME280;39538;52.196;9.892;2022-12-18T07:52:57;102058.00;;;-4.27;78.33
16694;BME280;39538;52.196;9.892;2022-12-18T07:55:28;102049.47;;;-4.18;77.92
16694;BME280;39538;52.196;9.892;2022-12-18T07:57:56;102054.00;;;-4.05;77.49
16694;BME280;39538;52.196;9.892;2022-12-18T08:00:23;102045.38;;;-4.01;77.34
16694;BME280;39538;52.196;9.892;2022-12-18T08:02:49;102039.28;;;-4.08;77.35
16694;BME280;39538;52.196;9.892;2022-12-18T08:05:16;102036.63;;;-4.09;77.24
16694;BME280;39538;52.196;9.892;2022-12-18T08:07:43;102020.22;;;-4.08;77.79
16694;BME280;39538;52.196;9.892;2022-12-18T08:10:09;102029.72;;;-4.09;77.55
16694;BME280;39538;52.196;9.892;2022-12-18T08:12:36;102024.56;;;-4.06;77.90
16694;BME280;39538;52.196;9.892;2022-12-18T08:15:05;102023.66;;;-4.09;77.90
16694;BME280;39538;52.196;9.892;2022-12-18T08:17:31;102025.44;;;-4.07;77.95
16694;BME280;39538;52.196;9.892;2022-12-18T08:19:58;102023.66;;;-4.09;78.06
16694;BME280;39538;52.196;9.892;2022-12-18T08:22:25;102022.81;;;-4.08;78.17
16694;BME280;39538;52.196;9.892;2022-12-18T08:24:52;102026.25;;;-4.09;78.41
16694;BME280;39538;52.196;9.892;2022-12-18T08:27:18;102019.28;;;-4.15;78.28
16694;BME280;39538;52.196;9.892;2022-12-18T08:29:45;102012.44;;;-4.08;78.02
16694;BME280;39538;52.196;9.892;2022-12-18T08:32:12;102008.25;;;-3.98;77.81
16694;BME280;39538;52.196;9.892;2022-12-18T08:34:39;102013.41;;;-4.00;77.94
16694;BME280;39538;52.196;9.892;2022-12-18T08:37:06;102008.25;;;-3.98;77.76
16694;BME280;39538;52.196;9.892;2022-12-18T08:39:32;102010.06;;;-3.91;77.46
16694;BME280;39538;52.196;9.892;2022-12-18T08:41:59;102000.59;;;-3.88;77.66
16694;BME280;39538;52.196;9.892;2022-12-18T08:44:43;102005.06;;;-3.76;76.83
16694;BME280;39538;52.196;9.892;2022-12-18T08:47:10;102001.63;;;-3.73;76.62
16694;BME280;39538;52.196;9.892;2022-12-18T08:49:38;102010.34;;;-3.67;76.31
16694;BME280;39538;52.196;9.892;2022-12-18T08:52:04;102004.41;;;-3.58;76.21
16694;BME280;39538;52.196;9.892;2022-12-18T08:54:31;101996.66;;;-3.53;75.17
16694;BME280;39538;52.196;9.892;2022-12-18T08:56:57;101995.00;;;-3.45;74.92
16694;BME280;39538;52.196;9.892;2022-12-18T08:59:24;102009.81;;;-3.40;74.92
16694;BME280;39538;52.196;9.892;2022-12-18T09:01:53;102011.56;;;-3.37;74.44
16694;BME280;39538;52.196;9.892;2022-12-18T09:04:20;102001.25;;;-3.29;74.04
16694;BME280;39538;52.196;9.892;2022-12-18T09:06:48;101999.50;;;-3.32;73.80
16694;BME280;39538;52.196;9.892;2022-12-18T09:09:15;102003.88;;;-3.25;73.96
16694;BME280;39538;52.196;9.892;2022-12-18T09:11:42;102003.94;;;-3.20;73.32
16694;BME280;39538;52.196;9.892;2022-12-18T09:14:09;101998.78;;;-3.15;73.15
16694;BME280;39538;52.196;9.892;2022-12-18T09:16:36;102002.28;;;-3.12;72.80
16694;BME280;39538;52.196;9.892;2022-12-18T09:19:03;101990.22;;;-3.04;72.11
16694;BME280;39538;52.196;9.892;2022-12-18T09:21:32;101995.56;;;-2.88;71.94
16694;BME280;39538;52.196;9.892;2022-12-18T09:24:00;101991.34;;;-2.77;71.06
16694;BME280;39538;52.196;9.892;2022-12-18T09:26:27;101987.97;;;-2.61;70.47
16694;BME280;39538;52.196;9.892;2022-12-18T09:28:54;101988.06;;;-2.45;69.54
16694;BME280;39538;52.196;9.892;2022-12-18T09:31:23;101980.34;;;-2.31;69.54
16694;BME280;39538;52.196;9.892;2022-12-18T09:33:49;101988.25;;;-2.18;68.70
16694;BME280;39538;52.196;9.892;2022-12-18T09:36:17;101988.31;;;-2.07;68.14
16694;BME280;39538;52.196;9.892;2022-12-18T09:38:44;101983.13;;;-2.02;67.89
16694;BME280;39538;52.196;9.892;2022-12-18T09:41:27;101988.34;;;-1.92;67.52
16694;BME280;39538;52.196;9.892;2022-12-18T09:44:01;102004.91;;;-1.80;66.92
16694;BME280;39538;52.196;9.892;2022-12-18T09:46:32;102000.59;;;-1.74;66.23
16694;BME280;39538;52.196;9.892;2022-12-18T09:49:02;102004.09;;;-1.64;66.36
16694;BME280;39538;52.196;9.892;2022-12-18T09:51:35;102002.41;;;-1.45;66.31
16694;BME280;39538;52.196;9.892;2022-12-18T09:54:06;102007.72;;;-0.62;66.16
16694;BME280;39538;52.196;9.892;2022-12-18T09:56:40;102010.69;;;0.81;62.16
16694;BME280;39538;52.196;9.892;2022-12-18T09:59:19;102011.19;;;1.31;57.28
16694;BME280;39538;52.196;9.892;2022-12-18T10:01:47;102017.31;;;1.25;56.12
16694;BME280;39538;52.196;9.892;2022-12-18T10:04:13;102021.06;;;0.91;56.16
16694;BME280;39538;52.196;9.892;2022-12-18T10:06:46;102019.53;;;0.59;55.75
16694;BME280;39538;52.196;9.892;2022-12-18T10:09:23;102019.66;;;0.37;56.29
16694;BME280;39538;52.196;9.892;2022-12-18T10:12:02;102008.41;;;0.22;56.76
16694;BME280;39538;52.196;9.892;2022-12-18T10:14:36;102005.72;;;0.34;56.71
16694;BME280;39538;52.196;9.892;2022-12-18T10:17:14;102009.72;;;0.95;55.46
16694;BME280;39538;52.196;9.892;2022-12-18T10:19:48;102005.66;;;1.63;54.05
16694;BME280;39538;52.196;9.892;2022-12-18T10:22:35;102015.44;;;2.26;50.98
16694;BME280;39538;52.196;9.892;2022-12-18T10:25:10;101999.53;;;1.64;51.50
16694;BME280;39538;52.196;9.892;2022-12-18T10:27:43;101997.41;;;1.11;52.62
16694;BME280;39538;52.196;9.892;2022-12-18T10:30:14;102010.66;;;0.88;53.31
16694;BME280;39538;52.196;9.892;2022-12-18T10:32:41;102012.34;;;0.95;53.90
16694;BME280;39538;52.196;9.892;2022-12-18T10:35:16;102000.72;;;1.28;53.60
16694;BME280;39538;52.196;9.892;2022-12-18T10:37:59;101992.94;;;2.07;52.19
16694;BME280;39538;52.196;9.892;2022-12-18T10:40:26;101989.50;;;2.70;50.43
16694;BME280;39538;52.196;9.892;2022-12-18T10:43:05;102003.41;;;3.31;49.05
16694;BME280;39538;52.196;9.892;2022-12-18T10:45:32;102006.56;;;3.98;47.36
16694;BME280;39538;52.196;9.892;2022-12-18T10:47:59;102002.72;;;4.16;46.50
16694;BME280;39538;52.196;9.892;2022-12-18T10:50:29;102005.81;;;5.13;45.66
16694;BME280;39538;52.196;9.892;2022-12-18T10:52:58;102002.69;;;6.31;44.10
16694;BME280;39538;52.196;9.892;2022-12-18T10:55:30;101992.03;;;6.92;42.12
16694;BME280;39538;52.196;9.892;2022-12-18T10:58:15;101997.00;;;8.05;40.60
16694;BME280;39538;52.196;9.892;2022-12-18T11:00:43;101991.41;;;7.89;38.64
16694;BME280;39538;52.196;9.892;2022-12-18T11:03:30;101996.19;;;8.26;38.66
16694;BME280;39538;52.196;9.892;2022-12-18T11:06:06;101989.53;;;7.67;39.17
16694;BME280;39538;52.196;9.892;2022-12-18T11:08:33;101972.53;;;6.96;38.41
16694;BME280;39538;52.196;9.892;2022-12-18T11:11:00;101975.88;;;6.15;39.60
16694;BME280;39538;52.196;9.892;2022-12-18T11:13:29;101965.56;;;6.07;40.81
16694;BME280;39538;52.196;9.892;2022-12-18T11:15:57;101972.66;;;6.05;41.20
16694;BME280;39538;52.196;9.892;2022-12-18T11:18:27;101956.41;;;6.21;40.61
16694;BME280;39538;52.196;9.892;2022-12-18T11:20:56;101961.81;;;6.16;40.88
16694;BME280;39538;52.196;9.892;2022-12-18T11:23:24;101966.09;;;5.22;41.80
16694;BME280;39538;52.196;9.892;2022-12-18T11:25:56;101964.19;;;4.55;42.67
16694;BME280;39538;52.196;9.892;2022-12-18T11:28:36;101963.63;;;5.16;43.07
16694;BME280;39538;52.196;9.892;2022-12-18T11:31:27;101971.34;;;5.56;42.11
16694;BME280;39538;52.196;9.892;2022-12-18T11:34:00;101970.63;;;5.17;41.81
16694;BME280;39538;52.196;9.892;2022-12-18T11:36:29;101966.13;;;4.84;42.76
16694;BME280;39538;52.196;9.892;2022-12-18T11:39:01;101981.19;;;3.97;43.58
16694;BME280;39538;52.196;9.892;2022-12-18T11:41:32;101963.28;;;3.24;45.11
16694;BME280;39538;52.196;9.892;2022-12-18T11:44:25;101957.75;;;3.40;44.91
16694;BME280;39538;52.196;9.892;2022-12-18T11:46:58;101947.66;;;4.50;44.09
16694;BME280;39538;52.196;9.892;2022-12-18T11:49:28;101943.97;;;4.57;42.15
16694;BME280;39538;52.196;9.892;2022-12-18T11:52:03;101937.84;;;5.93;42.42
16694;BME280;39538;52.196;9.892;2022-12-18T11:54:31;101937.88;;;6.22;41.01
16694;BME280;39538;52.196;9.892;2022-12-18T11:57:05;101928.72;;;7.42;38.95
16694;BME280;39538;52.196;9.892;2022-12-18T11:59:45;101925.06;;;7.46;38.71
16694;BME280;39538;52.196;9.892;2022-12-18T12:05:16;101912.16;;;6.59;39.61
16694;BME280;39538;52.196;9.892;2022-12-18T12:07:51;101905.00;;;6.89;40.05
16694;BME280;39538;52.196;9.892;2022-12-18T12:10:31;101899.44;;;6.71;39.90
16694;BME280;39538;52.196;9.892;2022-12-18T12:13:13;101895.09;;;6.69;40.12
16694;BME280;39538;52.196;9.892;2022-12-18T12:15:57;101883.59;;;6.43;40.54
16694;BME280;39538;52.196;9.892;2022-12-18T12:18:36;101881.91;;;5.52;41.76
16694;BME280;39538;52.196;9.892;2022-12-18T12:21:13;101883.16;;;4.34;43.08
16694;BME280;39538;52.196;9.892;2022-12-18T12:23:49;101874.25;;;3.58;44.37
16694;BME280;39538;52.196;9.892;2022-12-18T12:26:22;101876.97;;;3.54;45.17
16694;BME280;39538;52.196;9.892;2022-12-18T12:28:59;101870.06;;;3.02;46.04
16694;BME280;39538;52.196;9.892;2022-12-18T12:31:45;101878.34;;;2.79;47.01
16694;BME280;39538;52.196;9.892;2022-12-18T12:34:18;101870.91;;;2.52;47.79
16694;BME280;39538;52.196;9.892;2022-12-18T12:36:56;101865.00;;;2.38;47.95
16694;BME280;39538;52.196;9.892;2022-12-18T12:39:30;101866.38;;;2.03;48.67
16694;BME280;39538;52.196;9.892;2022-12-18T12:41:59;101862.19;;;1.88;49.08
16694;BME280;39538;52.196;9.892;2022-12-18T12:44:48;101859.00;;;1.65;49.14
16694;BME280;39538;52.196;9.892;2022-12-18T12:47:20;101855.69;;;1.52;49.44
16694;BME280;39538;52.196;9.892;2022-12-18T12:49:50;101865.66;;;1.19;51.24
16694;BME280;39538;52.196;9.892;2022-12-18T12:52:22;101855.59;;;0.76;53.02
16694;BME280;39538;52.196;9.892;2022-12-18T12:54:54;101847.22;;;0.37;55.26
16694;BME280;39538;52.196;9.892;2022-12-18T12:57:24;101828.97;;;0.27;56.74
16694;BME280;39538;52.196;9.892;2022-12-18T13:00:00;101823.88;;;0.10;58.62
16694;BME280;39538;52.196;9.892;2022-12-18T13:02:34;101830.16;;;-0.22;60.96
16694;BME280;39538;52.196;9.892;2022-12-18T13:05:04;101838.94;;;-0.43;63.08
16694;BME280;39538;52.196;9.892;2022-12-18T13:07:39;101848.59;;;-0.65;64.73
16694;BME280;39538;52.196;9.892;2022-12-18T13:12:55;101842.53;;;-0.84;66.37